sensor_id;sensor_type;location;lat;lon;timestamp;temperature;humidity
57088;DHT22;42965;52.846;6.614;2023-04-01T00:01:26;9.90;99.90
57088;DHT22;42965;52.846;6.614;2023-04-01T00:03:56;9.90;99.90
57088;DHT22;42965;52.846;6.614;2023-04-01T00:06:23;9.90;99.90
57088;DHT22;42965;52.846;6.614;2023-04-01T00:08:56;9.90;99.90
57088;DHT22;42965;52.846;6.614;2023-04-01T00:11:23;9.90;99.90
57088;DHT22;42965;52.846;6.614;2023-04-01T00:13:49;9.80;99.90
57088;DHT22;42965;52.846;6.614;2023-04-01T00:16:15;9.80;99.90
57088;DHT22;42965;52.846;6.614;2023-04-01T00:18:45;9.80;99.90
57088;DHT22;42965;52.846;6.614;2023-04-01T00:21:13;9.80;99.90
57088;DHT22;42965;52.846;6.614;2023-04-01T00:23:39;9.80;99.90
57088;DHT22;42965;52.846;6.614;2023-04-01T00:26:05;9.80;99.90
57088;DHT22;42965;52.846;6.614;2023-04-01T00:28:34;9.80;99.90
57088;DHT22;42965;52.846;6.614;2023-04-01T00:31:09;9.80;99.90
57088;DHT22;42965;52.846;6.614;2023-04-01T00:33:36;9.80;99.90
57088;DHT22;42965;52.846;6.614;2023-04-01T00:36:14;9.80;99.90
57088;DHT22;42965;52.846;6.614;2023-04-01T00:38:42;9.80;99.90
57088;DHT22;42965;52.846;6.614;2023-04-01T00:41:09;9.70;99.90
57088;DHT22;42965;52.846;6.614;2023-04-01T00:43:45;9.80;99.90
57088;DHT22;42965;52.846;6.614;2023-04-01T00:46:11;9.70;99.90
57088;DHT22;42965;52.846;6.614;2023-04-01T00:48:41;9.70;99.90
57088;DHT22;42965;52.846;6.614;2023-04-01T00:51:22;9.70;99.90
57088;DHT22;42965;52.846;6.614;2023-04-01T00:53:51;9.60;99.90
57088;DHT22;42965;52.846;6.614;2023-04-01T00:56:32;9.60;99.90
57088;DHT22;42965;52.846;6.614;2023-04-01T00:59:05;9.60;99.90
57088;DHT22;42965;52.846;6.614;2023-04-01T01:01:42;9.60;99.90
57088;DHT22;42965;52.846;6.614;2023-04-01T01:04:24;9.60;99.90
57088;DHT22;42965;52.846;6.614;2023-04-01T01:12:19;9.60;99.90
57088;DHT22;42965;52.846;6.614;2023-04-01T01:36:37;9.60;99.90
57088;DHT22;42965;52.846;6.614;2023-04-01T01:39:09;9.60;99.90
57088;DHT22;42965;52.846;6.614;2023-04-01T01:41:38;9.70;99.90
57088;DHT22;42965;52.846;6.614;2023-04-01T01:44:08;9.60;99.90
57088;DHT22;42965;52.846;6.614;2023-04-01T01:46:36;9.60;99.90
57088;DHT22;42965;52.846;6.614;2023-04-01T01:49:05;9.70;99.90
57088;DHT22;42965;52.846;6.614;2023-04-01T01:51:32;9.70;99.90
57088;DHT22;42965;52.846;6.614;2023-04-01T01:54:02;9.70;99.90
57088;DHT22;42965;52.846;6.614;2023-04-01T01:56:29;9.70;99.90
57088;DHT22;42965;52.846;6.614;2023-04-01T01:59:08;9.70;99.90
57088;DHT22;42965;52.846;6.614;2023-04-01T02:01:41;9.70;99.90
57088;DHT22;42965;52.846;6.614;2023-04-01T02:04:13;9.70;99.90
57088;DHT22;42965;52.846;6.614;2023-04-01T02:06:56;9.70;99.90
57088;DHT22;42965;52.846;6.614;2023-04-01T02:09:24;9.70;99.90
57088;DHT22;42965;52.846;6.614;2023-04-01T02:11:57;9.70;99.90
57088;DHT22;42965;52.846;6.614;2023-04-01T02:14:28;9.70;99.90
57088;DHT22;42965;52.846;6.614;2023-04-01T02:17:11;9.70;99.90
57088;DHT22;42965;52.846;6.614;2023-04-01T02:19:43;9.70;99.90
57088;DHT22;42965;52.846;6.614;2023-04-01T02:22:16;9.70;99.90
57088;DHT22;42965;52.846;6.614;2023-04-01T02:24:43;9.70;99.90
57088;DHT22;42965;52.846;6.614;2023-04-01T02:27:11;9.70;99.90
57088;DHT22;42965;52.846;6.614;2023-04-01T02:29:38;9.70;99.90
57088;DHT22;42965;52.846;6.614;2023-04-01T02:32:08;9.70;99.90
57088;DHT22;42965;52.846;6.614;2023-04-01T02:34:40;9.70;99.90
57088;DHT22;42965;52.846;6.614;2023-04-01T02:37:08;9.70;99.90
57088;DHT22;42965;52.846;6.614;2023-04-01T02:39:35;9.70;99.90
57088;DHT22;42965;52.846;6.614;2023-04-01T02:42:01;9.70;99.90
57088;DHT22;42965;52.846;6.614;2023-04-01T02:44:29;9.70;99.90
57088;DHT22;42965;52.846;6.614;2023-04-01T02:46:56;9.70;99.90
57088;DHT22;42965;52.846;6.614;2023-04-01T02:49:23;9.70;99.90
57088;DHT22;42965;52.846;6.614;2023-04-01T02:51:49;9.70;99.90
57088;DHT22;42965;52.846;6.614;2023-04-01T02:54:15;9.70;99.90
57088;DHT22;42965;52.846;6.614;2023-04-01T02:56:43;9.70;99.90
57088;DHT22;42965;52.846;6.614;2023-04-01T02:59:09;9.70;99.90
57088;DHT22;42965;52.846;6.614;2023-04-01T03:01:35;9.70;99.90
57088;DHT22;42965;52.846;6.614;2023-04-01T03:04:02;9.70;99.90
57088;DHT22;42965;52.846;6.614;2023-04-01T03:06:28;9.70;99.90
57088;DHT22;42965;52.846;6.614;2023-04-01T03:08:54;9.70;99.90
57088;DHT22;42965;52.846;6.614;2023-04-01T03:11:23;9.70;99.90
57088;DHT22;42965;52.846;6.614;2023-04-01T03:13:49;9.70;99.90
57088;DHT22;42965;52.846;6.614;2023-04-01T03:16:15;9.70;99.90
57088;DHT22;42965;52.846;6.614;2023-04-01T03:18:42;9.70;99.90
57088;DHT22;42965;52.846;6.614;2023-04-01T03:21:17;9.80;99.90
57088;DHT22;42965;52.846;6.614;2023-04-01T03:23:44;9.70;99.90
57088;DHT22;42965;52.846;6.614;2023-04-01T03:26:11;9.70;99.90
57088;DHT22;42965;52.846;6.614;2023-04-01T03:28:37;9.70;99.90
57088;DHT22;42965;52.846;6.614;2023-04-01T03:31:04;9.70;99.90
57088;DHT22;42965;52.846;6.614;2023-04-01T03:33:37;9.80;99.90
57088;DHT22;42965;52.846;6.614;2023-04-01T03:36:04;9.70;99.90
57088;DHT22;42965;52.846;6.614;2023-04-01T03:38:35;9.70;99.90
57088;DHT22;42965;52.846;6.614;2023-04-01T03:41:03;9.70;99.90
57088;DHT22;42965;52.846;6.614;2023-04-01T03:43:33;9.80;99.90
57088;DHT22;42965;52.846;6.614;2023-04-01T03:46:00;9.70;99.90
57088;DHT22;42965;52.846;6.614;2023-04-01T03:48:26;9.70;99.90
57088;DHT22;42965;52.846;6.614;2023-04-01T03:50:54;9.70;99.90
57088;DHT22;42965;52.846;6.614;2023-04-01T03:53:21;9.70;99.90
57088;DHT22;42965;52.846;6.614;2023-04-01T03:55:48;9.70;99.90
57088;DHT22;42965;52.846;6.614;2023-04-01T03:58:15;9.70;99.90
57088;DHT22;42965;52.846;6.614;2023-04-01T04:00:42;9.80;99.90
57088;DHT22;42965;52.846;6.614;2023-04-01T04:03:09;9.70;99.90
57088;DHT22;42965;52.846;6.614;2023-04-01T04:05:36;9.80;99.90
57088;DHT22;42965;52.846;6.614;2023-04-01T04:08:02;9.70;99.90
57088;DHT22;42965;52.846;6.614;2023-04-01T04:10:29;9.70;99.90
57088;DHT22;42965;52.846;6.614;2023-04-01T04:12:55;9.80;99.90
57088;DHT22;42965;52.846;6.614;2023-04-01T04:15:24;9.80;99.90
57088;DHT22;42965;52.846;6.614;2023-04-01T04:17:52;9.80;99.90
57088;DHT22;42965;52.846;6.614;2023-04-01T04:20:18;9.80;99.90
57088;DHT22;42965;52.846;6.614;2023-04-01T04:22:45;9.70;99.90
57088;DHT22;42965;52.846;6.614;2023-04-01T04:25:12;9.70;99.90
57088;DHT22;42965;52.846;6.614;2023-04-01T04:27:39;9.80;99.90
57088;DHT22;42965;52.846;6.614;2023-04-01T04:30:08;9.80;99.90
57088;DHT22;42965;52.846;6.614;2023-04-01T04:32:37;9.80;99.90
57088;DHT22;42965;52.846;6.614;2023-04-01T04:35:04;9.80;99.90
57088;DHT22;42965;52.846;6.614;2023-04-01T04:37:32;9.80;99.90
57088;DHT22;42965;52.846;6.614;2023-04-01T04:39:59;9.80;99.90
57088;DHT22;42965;52.846;6.614;2023-04-01T04:42:31;9.80;99.90
57088;DHT22;42965;52.846;6.614;2023-04-01T04:45:04;9.80;99.90
57088;DHT22;42965;52.846;6.614;2023-04-01T04:47:31;9.80;99.90
57088;DHT22;42965;52.846;6.614;2023-04-01T04:49:57;9.80;99.90
57088;DHT22;42965;52.846;6.614;2023-04-01T04:52:34;9.80;99.90
57088;DHT22;42965;52.846;6.614;2023-04-01T04:55:00;9.80;99.90
57088;DHT22;42965;52.846;6.614;2023-04-01T04:57:27;9.80;99.90
57088;DHT22;42965;52.846;6.614;2023-04-01T04:59:55;9.80;99.90
57088;DHT22;42965;52.846;6.614;2023-04-01T05:02:53;9.80;99.90
57088;DHT22;42965;52.846;6.614;2023-04-01T05:05:20;9.80;99.90
57088;DHT22;42965;52.846;6.614;2023-04-01T05:07:46;9.80;99.90
57088;DHT22;42965;52.846;6.614;2023-04-01T05:10:12;9.80;99.90
57088;DHT22;42965;52.846;6.614;2023-04-01T05:12:39;9.80;99.90
57088;DHT22;42965;52.846;6.614;2023-04-01T05:15:08;9.80;99.90
57088;DHT22;42965;52.846;6.614;2023-04-01T05:17:35;9.80;99.90
57088;DHT22;42965;52.846;6.614;2023-04-01T05:20:07;9.80;99.90
57088;DHT22;42965;52.846;6.614;2023-04-01T05:22:33;9.80;99.90
57088;DHT22;42965;52.846;6.614;2023-04-01T05:24:59;9.80;99.90
57088;DHT22;42965;52.846;6.614;2023-04-01T05:27:27;9.80;99.90
57088;DHT22;42965;52.846;6.614;2023-04-01T05:29:54;9.80;99.90
57088;DHT22;42965;52.846;6.614;2023-04-01T05:32:37;9.80;99.90
57088;DHT22;42965;52.846;6.614;2023-04-01T05:35:04;9.80;99.90
57088;DHT22;42965;52.846;6.614;2023-04-01T05:37:34;9.80;99.90
57088;DHT22;42965;52.846;6.614;2023-04-01T05:40:01;9.80;99.90
57088;DHT22;42965;52.846;6.614;2023-04-01T05:42:31;9.90;99.90
57088;DHT22;42965;52.846;6.614;2023-04-01T05:44:57;9.90;99.90
57088;DHT22;42965;52.846;6.614;2023-04-01T05:48:02;9.90;99.90
57088;DHT22;42965;52.846;6.614;2023-04-01T05:50:32;9.90;99.90
57088;DHT22;42965;52.846;6.614;2023-04-01T05:52:59;9.90;99.90
57088;DHT22;42965;52.846;6.614;2023-04-01T05:55:26;9.90;99.90
57088;DHT22;42965;52.846;6.614;2023-04-01T05:57:52;9.90;99.90
57088;DHT22;42965;52.846;6.614;2023-04-01T06:00:19;9.90;99.90
57088;DHT22;42965;52.846;6.614;2023-04-01T06:02:46;9.90;99.90
57088;DHT22;42965;52.846;6.614;2023-04-01T06:05:26;9.90;99.90
57088;DHT22;42965;52.846;6.614;2023-04-01T06:07:58;10.00;99.90
57088;DHT22;42965;52.846;6.614;2023-04-01T06:10:48;10.00;99.90
57088;DHT22;42965;52.846;6.614;2023-04-01T06:16:37;10.00;99.90
57088;DHT22;42965;52.846;6.614;2023-04-01T06:19:41;10.00;99.90
57088;DHT22;42965;52.846;6.614;2023-04-01T06:30:47;10.10;99.90
57088;DHT22;42965;52.846;6.614;2023-04-01T06:33:36;10.10;99.90
57088;DHT22;42965;52.846;6.614;2023-04-01T06:39:17;10.10;99.90
57088;DHT22;42965;52.846;6.614;2023-04-01T06:42:15;10.20;99.90
57088;DHT22;42965;52.846;6.614;2023-04-01T06:45:32;10.20;99.90
57088;DHT22;42965;52.846;6.614;2023-04-01T06:58:09;10.30;99.90
57088;DHT22;42965;52.846;6.614;2023-04-01T07:00:43;10.30;99.90
57088;DHT22;42965;52.846;6.614;2023-04-01T07:06:04;10.40;99.90
57088;DHT22;42965;52.846;6.614;2023-04-01T07:08:36;10.40;99.90
57088;DHT22;42965;52.846;6.614;2023-04-01T07:11:06;10.40;99.90
57088;DHT22;42965;52.846;6.614;2023-04-01T07:14:19;10.50;99.90
57088;DHT22;42965;52.846;6.614;2023-04-01T07:17:20;10.50;99.90
57088;DHT22;42965;52.846;6.614;2023-04-01T07:20:36;10.50;99.90
57088;DHT22;42965;52.846;6.614;2023-04-01T07:22:51;10.50;99.90
57088;DHT22;42965;52.846;6.614;2023-04-01T07:25:34;10.60;99.90
57088;DHT22;42965;52.846;6.614;2023-04-01T07:28:21;10.60;99.90
57088;DHT22;42965;52.846;6.614;2023-04-01T07:31:18;10.70;99.90
57088;DHT22;42965;52.846;6.614;2023-04-01T07:36:53;10.80;99.90
57088;DHT22;42965;52.846;6.614;2023-04-01T07:39:42;10.80;99.90
57088;DHT22;42965;52.846;6.614;2023-04-01T07:51:02;10.90;99.90
57088;DHT22;42965;52.846;6.614;2023-04-01T07:56:18;10.90;99.90
57088;DHT22;42965;52.846;6.614;2023-04-01T08:09:49;11.00;99.90
57088;DHT22;42965;52.846;6.614;2023-04-01T08:21:35;11.30;99.90
57088;DHT22;42965;52.846;6.614;2023-04-01T08:24:16;11.20;99.90
57088;DHT22;42965;52.846;6.614;2023-04-01T08:26:49;11.20;99.90
57088;DHT22;42965;52.846;6.614;2023-04-01T08:29:25;11.20;99.90
57088;DHT22;42965;52.846;6.614;2023-04-01T08:32:05;11.20;99.90
57088;DHT22;42965;52.846;6.614;2023-04-01T08:34:38;11.10;99.90
57088;DHT22;42965;52.846;6.614;2023-04-01T08:37:15;11.20;99.90
57088;DHT22;42965;52.846;6.614;2023-04-01T08:39:50;11.30;99.90
57088;DHT22;42965;52.846;6.614;2023-04-01T08:51:59;11.70;99.90
57088;DHT22;42965;52.846;6.614;2023-04-01T09:15:12;12.00;99.90
57088;DHT22;42965;52.846;6.614;2023-04-01T09:28:56;11.70;99.90
57088;DHT22;42965;52.846;6.614;2023-04-01T09:31:53;11.70;99.90
57088;DHT22;42965;52.846;6.614;2023-04-01T09:49:48;12.10;99.90
57088;DHT22;42965;52.846;6.614;2023-04-01T09:52:40;12.10;99.90
57088;DHT22;42965;52.846;6.614;2023-04-01T10:13:30;12.30;99.90
57088;DHT22;42965;52.846;6.614;2023-04-01T10:28:12;12.30;99.90
57088;DHT22;42965;52.846;6.614;2023-04-01T10:37:40;12.50;99.90
57088;DHT22;42965;52.846;6.614;2023-04-01T10:49:17;12.40;99.90
57088;DHT22;42965;52.846;6.614;2023-04-01T11:25:36;11.40;99.90
57088;DHT22;42965;52.846;6.614;2023-04-01T11:31:43;11.20;99.90
57088;DHT22;42965;52.846;6.614;2023-04-01T11:34:43;11.10;99.90
57088;DHT22;42965;52.846;6.614;2023-04-01T11:44:21;11.00;99.90
57088;DHT22;42965;52.846;6.614;2023-04-01T11:50:28;10.80;99.90
57088;DHT22;42965;52.846;6.614;2023-04-01T12:07:32;11.10;99.90
57088;DHT22;42965;52.846;6.614;2023-04-01T12:12:38;11.00;99.90
57088;DHT22;42965;52.846;6.614;2023-04-01T12:18:47;10.80;99.90
57088;DHT22;42965;52.846;6.614;2023-04-01T12:29:37;10.80;99.90
57088;DHT22;42965;52.846;6.614;2023-04-01T12:32:31;10.80;99.90
57088;DHT22;42965;52.846;6.614;2023-04-01T12:49:33;10.80;99.90
57088;DHT22;42965;52.846;6.614;2023-04-01T12:55:44;10.80;99.90
57088;DHT22;42965;52.846;6.614;2023-04-01T13:04:39;11.00;99.90
57088;DHT22;42965;52.846;6.614;2023-04-01T13:07:32;11.00;99.90
57088;DHT22;42965;52.846;6.614;2023-04-01T13:10:48;10.80;99.90
57088;DHT22;42965;52.846;6.614;2023-04-01T13:13:41;10.90;99.90
57088;DHT22;42965;52.846;6.614;2023-04-01T13:25:13;10.50;99.90
57088;DHT22;42965;52.846;6.614;2023-04-01T13:27:38;10.40;99.90
57088;DHT22;42965;52.846;6.614;2023-04-01T13:41:25;10.10;99.90
57088;DHT22;42965;52.846;6.614;2023-04-01T13:46:42;10.10;99.90
57088;DHT22;42965;52.846;6.614;2023-04-01T13:54:40;10.20;99.90
57088;DHT22;42965;52.846;6.614;2023-04-01T13:57:42;10.10;99.90
57088;DHT22;42965;52.846;6.614;2023-04-01T14:00:51;10.00;99.90
57088;DHT22;42965;52.846;6.614;2023-04-01T14:11:19;10.00;99.90
57088;DHT22;42965;52.846;6.614;2023-04-01T14:17:03;10.00;99.90
57088;DHT22;42965;52.846;6.614;2023-04-01T14:22:54;10.00;99.90
57088;DHT22;42965;52.846;6.614;2023-04-01T14:31:12;10.00;99.90
57088;DHT22;42965;52.846;6.614;2023-04-01T14:33:58;10.00;99.90
57088;DHT22;42965;52.846;6.614;2023-04-01T14:47:50;9.90;99.90
57088;DHT22;42965;52.846;6.614;2023-04-01T14:50:21;9.90;99.90
57088;DHT22;42965;52.846;6.614;2023-04-01T14:55:54;9.90;99.90
57088;DHT22;42965;52.846;6.614;2023-04-01T14:58:23;9.90;99.90
57088;DHT22;42965;52.846;6.614;2023-04-01T15:09:36;9.70;99.90
57088;DHT22;42965;52.846;6.614;2023-04-01T15:12:30;9.60;99.90
57088;DHT22;42965;52.846;6.614;2023-04-01T15:15:14;9.50;99.90
57088;DHT22;42965;52.846;6.614;2023-04-01T15:18:16;9.60;99.90
57088;DHT22;42965;52.846;6.614;2023-04-01T15:20:56;9.60;99.90
57088;DHT22;42965;52.846;6.614;2023-04-01T15:40:57;9.60;99.90
57088;DHT22;42965;52.846;6.614;2023-04-01T15:43:43;9.60;99.90
57088;DHT22;42965;52.846;6.614;2023-04-01T15:48:57;9.50;99.90
57088;DHT22;42965;52.846;6.614;2023-04-01T16:02:23;9.40;99.90
57088;DHT22;42965;52.846;6.614;2023-04-01T16:25:36;9.20;99.90
57088;DHT22;42965;52.846;6.614;2023-04-01T16:28:27;9.10;99.90
57088;DHT22;42965;52.846;6.614;2023-04-01T16:33:47;9.10;99.90
57088;DHT22;42965;52.846;6.614;2023-04-01T16:36:35;9.10;99.90
57088;DHT22;42965;52.846;6.614;2023-04-01T16:39:27;9.00;99.90
57088;DHT22;42965;52.846;6.614;2023-04-01T16:44:54;9.00;99.90
57088;DHT22;42965;52.846;6.614;2023-04-01T16:47:27;8.90;99.90
57088;DHT22;42965;52.846;6.614;2023-04-01T16:50:19;8.90;99.90
57088;DHT22;42965;52.846;6.614;2023-04-01T16:53:09;8.80;99.90
57088;DHT22;42965;52.846;6.614;2023-04-01T16:55:55;8.80;99.90
57088;DHT22;42965;52.846;6.614;2023-04-01T17:01:27;8.70;99.90
57088;DHT22;42965;52.846;6.614;2023-04-01T17:04:04;8.70;99.90
57088;DHT22;42965;52.846;6.614;2023-04-01T17:06:55;8.60;99.90
57088;DHT22;42965;52.846;6.614;2023-04-01T17:09:44;8.50;99.90
57088;DHT22;42965;52.846;6.614;2023-04-01T17:12:32;8.50;99.90
57088;DHT22;42965;52.846;6.614;2023-04-01T17:18:25;8.40;99.90
57088;DHT22;42965;52.846;6.614;2023-04-01T17:23:57;8.30;99.90
57088;DHT22;42965;52.846;6.614;2023-04-01T17:26:38;8.30;99.90
57088;DHT22;42965;52.846;6.614;2023-04-01T17:29:24;8.30;99.90
57088;DHT22;42965;52.846;6.614;2023-04-01T17:32:10;8.20;99.90
57088;DHT22;42965;52.846;6.614;2023-04-01T17:40:12;8.20;99.90
57088;DHT22;42965;52.846;6.614;2023-04-01T17:49:13;8.10;99.90
57088;DHT22;42965;52.846;6.614;2023-04-01T17:55:06;8.00;99.90
57088;DHT22;42965;52.846;6.614;2023-04-01T18:00:26;7.90;99.90
57088;DHT22;42965;52.846;6.614;2023-04-01T18:26:11;7.50;99.90
57088;DHT22;42965;52.846;6.614;2023-04-01T18:28:50;7.40;99.90
57088;DHT22;42965;52.846;6.614;2023-04-01T18:31:21;7.40;99.90
57088;DHT22;42965;52.846;6.614;2023-04-01T18:34:10;7.40;99.90
57088;DHT22;42965;52.846;6.614;2023-04-01T18:39:22;7.30;99.90
57088;DHT22;42965;52.846;6.614;2023-04-01T18:42:43;7.30;99.90
57088;DHT22;42965;52.846;6.614;2023-04-01T18:48:11;7.20;99.90
57088;DHT22;42965;52.846;6.614;2023-04-01T18:58:35;7.10;99.90
57088;DHT22;42965;52.846;6.614;2023-04-01T19:06:51;7.10;99.90
57088;DHT22;42965;52.846;6.614;2023-04-01T19:09:22;7.10;99.90
57088;DHT22;42965;52.846;6.614;2023-04-01T19:12:12;7.00;99.90
57088;DHT22;42965;52.846;6.614;2023-04-01T19:15:16;7.00;99.90
57088;DHT22;42965;52.846;6.614;2023-04-01T19:21:18;7.00;99.90
57088;DHT22;42965;52.846;6.614;2023-04-01T19:24:06;7.00;99.90
57088;DHT22;42965;52.846;6.614;2023-04-01T19:26:46;7.00;99.90
57088;DHT22;42965;52.846;6.614;2023-04-01T19:34:28;6.90;99.90
57088;DHT22;42965;52.846;6.614;2023-04-01T19:37:23;6.90;99.90
57088;DHT22;42965;52.846;6.614;2023-04-01T19:48:21;6.80;99.90
57088;DHT22;42965;52.846;6.614;2023-04-01T19:56:47;6.80;99.90
57088;DHT22;42965;52.846;6.614;2023-04-01T19:59:47;6.80;99.90
57088;DHT22;42965;52.846;6.614;2023-04-01T20:04:55;6.80;99.90
57088;DHT22;42965;52.846;6.614;2023-04-01T20:07:40;6.80;99.90
57088;DHT22;42965;52.846;6.614;2023-04-01T20:10:11;6.70;99.90
57088;DHT22;42965;52.846;6.614;2023-04-01T20:15:22;6.70;99.90
57088;DHT22;42965;52.846;6.614;2023-04-01T20:17:55;6.70;99.90
57088;DHT22;42965;52.846;6.614;2023-04-01T20:20:27;6.60;99.90
57088;DHT22;42965;52.846;6.614;2023-04-01T20:23:05;6.60;99.90
57088;DHT22;42965;52.846;6.614;2023-04-01T20:26:11;6.60;99.90
57088;DHT22;42965;52.846;6.614;2023-04-01T20:31:39;6.60;99.90
57088;DHT22;42965;52.846;6.614;2023-04-01T20:37:00;6.50;99.90
57088;DHT22;42965;52.846;6.614;2023-04-01T20:42:43;6.50;99.90
57088;DHT22;42965;52.846;6.614;2023-04-01T20:50:41;6.40;99.90
57088;DHT22;42965;52.846;6.614;2023-04-01T20:53:23;6.40;99.90
57088;DHT22;42965;52.846;6.614;2023-04-01T21:04:27;6.40;99.90
57088;DHT22;42965;52.846;6.614;2023-04-01T21:12:37;6.30;99.90
57088;DHT22;42965;52.846;6.614;2023-04-01T21:15:39;6.20;99.90
57088;DHT22;42965;52.846;6.614;2023-04-01T21:31:55;6.10;99.90
57088;DHT22;42965;52.846;6.614;2023-04-01T21:43:27;6.10;99.90
57088;DHT22;42965;52.846;6.614;2023-04-01T21:48:56;6.10;99.90
57088;DHT22;42965;52.846;6.614;2023-04-01T21:56:50;6.00;99.90
57088;DHT22;42965;52.846;6.614;2023-04-01T22:02:40;6.00;99.90
57088;DHT22;42965;52.846;6.614;2023-04-01T22:05:22;6.00;99.90
57088;DHT22;42965;52.846;6.614;2023-04-01T22:10:41;5.90;99.90
57088;DHT22;42965;52.846;6.614;2023-04-01T22:13:15;5.90;99.90
57088;DHT22;42965;52.846;6.614;2023-04-01T22:18:34;5.90;99.90
57088;DHT22;42965;52.846;6.614;2023-04-01T22:21:27;5.90;99.90
57088;DHT22;42965;52.846;6.614;2023-04-01T22:26:43;5.90;99.90
57088;DHT22;42965;52.846;6.614;2023-04-01T22:32:21;5.80;99.90
57088;DHT22;42965;52.846;6.614;2023-04-01T22:43:08;5.80;99.90
57088;DHT22;42965;52.846;6.614;2023-04-01T22:46:01;5.70;99.90
57088;DHT22;42965;52.846;6.614;2023-04-01T22:48:41;5.80;99.90
57088;DHT22;42965;52.846;6.614;2023-04-01T22:54:14;5.70;99.90
57088;DHT22;42965;52.846;6.614;2023-04-01T22:59:54;5.60;99.90
57088;DHT22;42965;52.846;6.614;2023-04-01T23:02:49;5.60;99.90
57088;DHT22;42965;52.846;6.614;2023-04-01T23:05:20;5.60;99.90
57088;DHT22;42965;52.846;6.614;2023-04-01T23:10:41;5.60;99.90
57088;DHT22;42965;52.846;6.614;2023-04-01T23:13:29;5.60;99.90
57088;DHT22;42965;52.846;6.614;2023-04-01T23:15:57;5.60;99.90
57088;DHT22;42965;52.846;6.614;2023-04-01T23:18:45;5.50;99.90
57088;DHT22;42965;52.846;6.614;2023-04-01T23:21:39;5.50;99.90
57088;DHT22;42965;52.846;6.614;2023-04-01T23:24:33;5.40;99.90
57088;DHT22;42965;52.846;6.614;2023-04-01T23:27:08;5.30;99.90
57088;DHT22;42965;52.846;6.614;2023-04-01T23:29:37;5.30;99.90
57088;DHT22;42965;52.846;6.614;2023-04-01T23:32:25;5.30;99.90
57088;DHT22;42965;52.846;6.614;2023-04-01T23:34:54;5.20;99.90
57088;DHT22;42965;52.846;6.614;2023-04-01T23:37:23;5.20;99.90
57088;DHT22;42965;52.846;6.614;2023-04-01T23:39:57;5.20;99.90
57088;DHT22;42965;52.846;6.614;2023-04-01T23:42:32;5.10;99.90
57088;DHT22;42965;52.846;6.614;2023-04-01T23:45:13;5.10;99.90
57088;DHT22;42965;52.846;6.614;2023-04-01T23:47:40;5.10;99.90
57088;DHT22;42965;52.846;6.614;2023-04-01T23:50:26;5.10;99.90
57088;DHT22;42965;52.846;6.614;2023-04-01T23:53:00;5.10;99.90
57088;DHT22;42965;52.846;6.614;2023-04-01T23:55:31;5.10;99.90
57088;DHT22;42965;52.846;6.614;2023-04-01T23:58:27;5.10;99.90
